createdAt,value
2022-10-05T00:00:00.000Z,84.94
2022-10-05T00:15:00.000Z,84.84
2022-10-05T00:30:00.000Z,83.93
2022-10-05T00:45:00.000Z,82.99
2022-10-05T01:00:00.000Z,82.89
2022-10-05T01:15:00.000Z,83.13
2022-10-05T01:30:00.000Z,81.69
2022-10-05T01:45:00.000Z,80.46
2022-10-05T02:00:00.000Z,78.82
2022-10-05T02:15:00.000Z,78.87
2022-10-05T02:30:00.000Z,77.82
2022-10-05T02:45:00.000Z,77.5
2022-10-05T03:00:00.000Z,77.1
2022-10-05T03:15:00.000Z,73.98
2022-10-05T03:30:00.000Z,72.58
2022-10-05T03:45:00.000Z,71.85
2022-10-05T04:00:00.000Z,71.23
2022-10-05T04:15:00.000Z,71.69
2022-10-05T04:30:00.000Z,71.5
2022-10-05T04:45:00.000Z,71.1
2022-10-05T05:00:00.000Z,70.57
2022-10-05T05:15:00.000Z,69.9
2022-10-05T05:30:00.000Z,70.25
2022-10-05T05:45:00.000Z,69.74
2022-10-05T06:00:00.000Z,68.07
2022-10-05T06:15:00.000Z,66.38
2022-10-05T06:30:00.000Z,64.36
2022-10-05T06:45:00.000Z,61.97
2022-10-05T07:00:00.000Z,57.62
2022-10-05T07:15:00.000Z,50.29
2022-10-05T07:30:00.000Z,46.94
2022-10-05T07:45:00.000Z,44.24
2022-10-05T08:00:00.000Z,40.72
2022-10-05T08:15:00.000Z,38.72
2022-10-05T08:30:00.000Z,37.39
2022-10-05T08:45:00.000Z,36.44
2022-10-05T09:00:00.000Z,36.45
2022-10-05T09:15:00.000Z,35.78
2022-10-05T09:30:00.000Z,35.57
2022-10-05T09:45:00.000Z,34.22
2022-10-05T10:00:00.000Z,34.22
2022-10-05T10:15:00.000Z,34.54
2022-10-05T10:30:00.000Z,34.66
2022-10-05T10:45:00.000Z,34.21
2022-10-05T11:00:00.000Z,34.43
2022-10-05T11:15:00.000Z,34.73
2022-10-05T11:30:00.000Z,35.21
2022-10-05T11:45:00.000Z,36.75
2022-10-05T12:00:00.000Z,37.3
2022-10-05T12:15:00.000Z,37.97
2022-10-05T12:30:00.000Z,37.22
2022-10-05T12:45:00.000Z,37.33
2022-10-05T13:00:00.000Z,37.56
2022-10-05T13:15:00.000Z,38.57
2022-10-05T13:30:00.000Z,39.18
2022-10-05T13:45:00.000Z,39.24
2022-10-05T14:00:00.000Z,40.58
2022-10-05T14:15:00.000Z,41.9
2022-10-05T14:30:00.000Z,43.34
2022-10-05T14:45:00.000Z,46.44
2022-10-05T15:00:00.000Z,47.54
2022-10-05T15:15:00.000Z,51.92
2022-10-05T15:30:00.000Z,56.6
2022-10-05T15:45:00.000Z,60.93
2022-10-05T16:00:00.000Z,63.87
2022-10-05T16:15:00.000Z,65.32
2022-10-05T16:30:00.000Z,66.48
2022-10-05T16:45:00.000Z,67.65
2022-10-05T17:00:00.000Z,65.8
2022-10-05T17:15:00.000Z,67.22
2022-10-05T17:30:00.000Z,68.56
2022-10-05T17:45:00.000Z,68.4
2022-10-05T18:00:00.000Z,68.1
2022-10-05T18:15:00.000Z,67.59
2022-10-05T18:30:00.000Z,67.47
2022-10-05T18:45:00.000Z,67.25
2022-10-05T19:00:00.000Z,68.07
2022-10-05T19:15:00.000Z,68.38
2022-10-05T19:30:00.000Z,68.27
2022-10-05T19:45:00.000Z,67.56
2022-10-05T20:00:00.000Z,67.28
2022-10-05T20:15:00.000Z,66.83
2022-10-05T20:30:00.000Z,66.87
2022-10-05T20:45:00.000Z,67.24
2022-10-05T21:00:00.000Z,67.47
2022-10-05T21:15:00.000Z,68.12
2022-10-05T21:30:00.000Z,69.14
2022-10-05T21:45:00.000Z,70.22
2022-10-05T22:00:00.000Z,70.27
2022-10-05T22:15:00.000Z,68.87
2022-10-05T22:30:00.000Z,67.38
2022-10-05T22:45:00.000Z,67.74
2022-10-05T23:00:00.000Z,68.83
2022-10-05T23:15:00.000Z,69.29
2022-10-05T23:30:00.000Z,69.3
2022-10-05T23:45:00.000Z,68.57
